Skip Navigation LinksHome page > Weather > Current weather Skip Navigation Links

Current Weather

Unknown weather station OMDB

For information only: do not use for flight planning or navigation.
Latest weather
Observation time Friday, November 15, 2019 1:00 AM UTC
Local time Friday, November 15, 2019 1:10 AM UTC
Flight conditions Visual Meteorological Conditions
Winds
Wind direction South-Southeast (160°)
Wind speed 5 mph
Visibility 6.2 mi.
Sky condition
Ceiling unlimited
Sky clear
Temperature 70°F
Dewpoint 46°F
Altimeter 30.00 in.Hg
Derived measurements
Relative humidity 43%
Density altitude 763 ft.
Remarks
Ceiling and visibility OK.
No significant changes expected in the next two hours.
METAR OMDB 150100Z 16004KT CAVOK 21/08 Q1016 NOSIG

Settings

Location code

InnerDrive.Weather 4.0.6770.0 Release CLR 4.0.30319.42000
Copyright ©2018 Inner Drive Technology. All rights reserved. Portions Copyright ©1986-2018 David Braverman.

Find weather

Site navigation


Skip Navigation Links

Place info

Page info

PayPal - The safer, easier way to pay online!

Return home.

Copyright ©2019 Inner Drive Technology. Purveyors of fine, hand-crafted computer software. Page printed 2019-11-15T01:10:34 UTC.